Time;durP1;ratioP1;P1;durP2;ratioP2;P2;SDS_P1;SDS_P2;PMS_P1;PMS_P2;Temp;Humidity;BMP_temperature;BMP_pressure;BME280_temperature;BME280_humidity;BME280_pressure;Samples;Min_cycle;Max_cycle;Signal;HPM_P1;HPM_P2
2022/04/17 05:03:13;;;;;;;5.53;3.70;;;3.40;90.10;;;;;;6138460;23;20080;-83
2022/04/17 05:05:44;;;;;;;5.80;3.20;;;3.50;90.20;;;;;;6139230;23;20207;-82
2022/04/17 05:11:24;;;;;;;5.05;3.35;;;3.60;90.20;;;;;;6074708;23;20014;-80
2022/04/17 05:13:51;;;;;;;6.07;3.63;;;3.70;90.00;;;;;;6051054;23;20002;-82
2022/04/17 05:16:18;;;;;;;6.85;3.40;;;3.80;89.20;;;;;;6049599;23;20313;-83
2022/04/17 05:30:26;;;;;;;4.88;2.88;;;4.40;86.40;;;;;;6049383;23;20124;-81
2022/04/17 05:33:55;;;;;;;6.05;3.22;;;4.50;85.60;;;;;;6074840;23;20026;-81
2022/04/17 05:36:34;;;;;;;5.93;3.00;;;4.60;85.00;;;;;;6025370;23;20082;-82
2022/04/17 05:51:51;;;;;;;4.40;2.30;;;5.30;82.00;;;;;;6164188;23;20015;-79
2022/04/17 06:09:40;;;;;;;4.30;2.38;;;6.00;78.80;;;;;;6071430;23;20013;-80
2022/04/17 06:34:51;;;;;;;7.20;2.40;;;7.00;75.90;;;;;;6093703;23;21512;-84
2022/04/17 06:38:25;;;;;;;3.47;2.10;;;7.10;75.50;;;;;;6166229;23;20350;-81
2022/04/17 06:41:12;;;;;;;5.15;2.50;;;7.20;75.00;;;;;;6192749;23;20024;-82
2022/04/17 06:57:27;;;;;;;;;;;;;;;;;;;;;
2022/04/17 07:00:22;;;;;;;3.78;2.00;;;7.80;72.20;;;;;;6157214;23;20084;-84
2022/04/17 07:03:07;;;;;;;3.97;2.47;;;7.90;71.70;;;;;;6159204;23;20218;-84
2022/04/17 07:06:09;;;;;;;4.93;1.98;;;8.00;71.70;;;;;;6173999;23;20011;-85
2022/04/17 07:09:20;;;;;;;4.97;2.25;;;8.20;70.80;;;;;;6142994;23;20005;-86
2022/04/17 07:11:49;;;;;;;7.53;2.33;;;8.40;70.50;;;;;;6169902;23;20008;-84
2022/04/17 07:14:15;;;;;;;5.20;1.92;;;8.50;70.70;;;;;;6167385;23;20012;-84
2022/04/17 07:16:47;;;;;;;3.58;2.00;;;8.70;67.90;;;;;;6166035;23;20037;-83
2022/04/17 07:23:06;;;;;;;3.63;1.73;;;9.00;67.00;;;;;;6188576;23;20048;-84
2022/04/17 07:25:32;;;;;;;3.65;2.03;;;9.20;67.60;;;;;;6142053;23;20123;-84
2022/04/17 07:27:58;;;;;;;3.45;1.85;;;9.40;67.90;;;;;;6142951;23;19993;-84
2022/04/17 07:30:33;;;;;;;4.78;1.80;;;9.50;67.60;;;;;;6141491;23;20317;-86
2022/04/17 07:33:20;;;;;;;4.13;1.95;;;9.60;67.30;;;;;;6143105;23;20009;-85
2022/04/17 07:35:49;;;;;;;4.18;1.75;;;9.80;66.70;;;;;;6142528;23;20005;-85
2022/04/17 07:38:18;;;;;;;3.85;1.85;;;9.90;66.70;;;;;;6142499;23;20012;-84
2022/04/17 07:40:51;;;;;;;4.13;2.17;;;10.00;66.20;;;;;;6143107;23;20169;-84
2022/04/17 07:43:19;;;;;;;3.22;1.50;;;10.10;66.20;;;;;;6142327;23;20005;-80
2022/04/17 07:46:03;;;;;;;3.08;1.45;;;10.10;64.50;;;;;;6166136;23;20017;-81
2022/04/17 07:48:29;;;;;;;2.80;1.48;;;10.20;63.10;;;;;;6166824;23;20069;-82
2022/04/17 07:50:55;;;;;;;2.67;1.30;;;10.20;61.70;;;;;;6142993;23;20345;-83
2022/04/17 07:53:21;;;;;;;3.17;1.40;;;10.30;61.40;;;;;;6142014;23;20009;-82
2022/04/17 07:55:47;;;;;;;4.95;1.50;;;10.40;62.00;;;;;;6142829;23;19997;-81
2022/04/17 07:58:23;;;;;;;3.75;1.38;;;10.60;62.50;;;;;;6154678;23;20059;-81
2022/04/17 08:00:58;;;;;;;3.17;1.60;;;10.70;62.30;;;;;;6166186;23;20028;-80
2022/04/17 08:06:06;;;;;;;3.72;1.30;;;10.80;60.50;;;;;;6191060;23;20001;-84
2022/04/17 08:08:37;;;;;;;3.83;1.90;;;10.80;60.00;;;;;;6166134;23;20275;-82
2022/04/17 08:11:04;;;;;;;3.40;1.30;;;11.00;61.10;;;;;;6167075;23;20001;-80
2022/04/17 08:13:35;;;;;;;3.22;1.55;;;11.20;61.40;;;;;;6191718;23;20028;-83
2022/04/17 08:16:02;;;;;;;3.20;1.10;;;11.10;59.60;;;;;;6166328;23;20013;-82
2022/04/17 08:18:28;;;;;;;3.58;1.40;;;11.10;59.80;;;;;;6166841;23;20000;-81
2022/04/17 08:21:23;;;;;;;3.55;1.50;;;11.20;60.40;;;;;;6192018;23;20005;-82
2022/04/17 08:23:52;;;;;;;4.05;1.90;;;11.20;60.30;;;;;;6107155;23;20029;-81
2022/04/17 08:26:18;;;;;;;2.88;1.63;;;11.40;61.10;;;;;;6106571;23;20005;-81
2022/04/17 08:28:44;;;;;;;4.03;1.65;;;11.40;61.00;;;;;;6106917;23;20010;-80
2022/04/17 08:31:10;;;;;;;4.03;1.70;;;11.50;62.00;;;;;;6106140;23;20391;-81
2022/04/17 08:33:36;;;;;;;4.57;1.50;;;11.60;61.90;;;;;;6105797;23;20017;-81
2022/04/17 08:36:52;;;;;;;3.20;1.70;;;11.60;61.30;;;;;;6107051;23;20010;-81
2022/04/17 08:43:43;;;;;;;2.28;1.40;;;11.80;61.20;;;;;;6131982;23;20061;-81
2022/04/17 09:03:15;;;;;;;;;;;;;;;;;;;;;
2022/04/17 09:20:50;;;;;;;2.42;1.05;;;12.50;58.30;;;;;;6115014;23;20043;-81
2022/04/17 09:23:32;;;;;;;3.38;1.40;;;12.60;56.50;;;;;;6171649;23;20005;-81
2022/04/17 09:25:58;;;;;;;2.78;1.25;;;12.60;55.10;;;;;;6173470;23;20055;-82
2022/04/17 09:28:31;;;;;;;2.97;1.15;;;12.70;55.40;;;;;;6197638;23;20005;-81
2022/04/17 09:30:59;;;;;;;2.53;1.23;;;12.70;55.20;;;;;;6172426;23;20278;-82
2022/04/17 09:33:38;;;;;;;3.15;1.13;;;12.70;55.10;;;;;;6173117;23;20055;-80
2022/04/17 09:36:04;;;;;;;3.85;1.40;;;12.60;55.80;;;;;;6173005;23;20012;-80
2022/04/17 09:38:32;;;;;;;4.20;1.30;;;12.80;55.90;;;;;;6172143;23;20070;-79
2022/04/17 09:41:13;;;;;;;2.75;1.10;;;12.70;55.00;;;;;;6173390;23;20024;-80
2022/04/17 09:43:39;;;;;;;4.72;1.13;;;12.80;55.40;;;;;;6172576;23;20004;-80
2022/04/17 09:46:09;;;;;;;2.17;1.00;;;12.90;55.10;;;;;;6172138;23;20032;-79
2022/04/17 09:48:40;;;;;;;4.03;1.30;;;13.00;55.70;;;;;;6172222;23;20005;-79
2022/04/17 09:51:26;;;;;;;2.78;1.10;;;13.10;55.40;;;;;;6197745;23;20001;-80
2022/04/17 09:54:05;;;;;;;2.90;1.10;;;13.30;54.60;;;;;;6198023;23;20024;-81
2022/04/17 09:56:37;;;;;;;3.75;1.10;;;13.20;54.90;;;;;;6197052;23;20000;-79
2022/04/17 09:59:17;;;;;;;3.85;1.30;;;13.20;54.70;;;;;;6197712;23;20059;-82
2022/04/17 10:01:49;;;;;;;2.42;1.13;;;13.40;55.50;;;;;;6185979;23;20338;-78
2022/04/17 10:04:21;;;;;;;5.25;1.17;;;13.60;55.40;;;;;;6143728;23;20275;-79
2022/04/17 10:06:52;;;;;;;2.63;1.00;;;13.70;55.30;;;;;;6141955;23;20009;-81
2022/04/17 10:09:18;;;;;;;2.50;1.23;;;13.90;55.10;;;;;;6142938;23;20005;-82
2022/04/17 10:11:44;;;;;;;3.88;1.00;;;13.90;54.90;;;;;;6142592;23;20068;-81
2022/04/17 10:14:10;;;;;;;2.00;0.90;;;14.00;54.40;;;;;;6143523;23;20334;-79
2022/04/17 10:16:41;;;;;;;2.33;1.27;;;14.10;53.80;;;;;;6141920;23;20019;-78
2022/04/17 10:19:15;;;;;;;3.65;0.90;;;14.00;54.50;;;;;;6168257;23;20005;-82
2022/04/17 10:21:41;;;;;;;2.83;1.20;;;14.10;54.80;;;;;;6167731;23;20047;-82
2022/04/17 10:24:15;;;;;;;6.35;1.80;;;14.20;54.40;;;;;;6195079;23;20001;-80
2022/04/17 10:26:44;;;;;;;3.00;1.10;;;14.30;54.30;;;;;;6143396;23;20052;-81
2022/04/17 10:29:17;;;;;;;2.58;1.15;;;14.40;54.00;;;;;;6144270;23;20055;-81
2022/04/17 10:32:20;;;;;;;2.50;1.00;;;14.40;53.70;;;;;;6142229;23;20116;-79
2022/04/17 10:35:04;;;;;;;2.72;1.02;;;14.50;53.10;;;;;;6167842;23;20017;-82
2022/04/17 10:38:00;;;;;;;2.28;0.80;;;14.60;53.00;;;;;;6143288;23;20344;-81
2022/04/17 10:40:27;;;;;;;2.05;0.80;;;14.70;52.80;;;;;;6167399;23;20325;-81
2022/04/17 10:43:02;;;;;;;;;;;14.80;52.40;;;;;;6144710;23;19997;-81
2022/04/17 10:45:31;;;;;;;3.58;1.38;;;14.80;52.80;;;;;;6141661;23;19911;-82
2022/04/17 10:48:05;;;;;;;2.28;0.90;;;14.90;52.30;;;;;;6143183;23;20298;-79
2022/04/17 10:50:41;;;;;;;2.38;0.90;;;15.00;53.10;;;;;;6144290;23;20012;-80
2022/04/17 10:53:30;;;;;;;2.17;0.88;;;15.20;52.10;;;;;;6108580;23;20016;-81
2022/04/17 10:56:05;;;;;;;3.42;1.00;;;15.20;51.10;;;;;;6084899;23;20006;-79
2022/04/17 10:58:35;;;;;;;2.80;0.70;;;15.40;50.80;;;;;;6084043;23;20073;-80
2022/04/17 11:01:01;;;;;;;2.78;1.05;;;15.50;50.70;;;;;;6107527;23;20010;-80
2022/04/17 11:03:27;;;;;;;1.90;0.77;;;15.60;49.70;;;;;;6083736;23;20018;-80
2022/04/17 11:08:47;;;;;;;2.00;0.70;;;16.00;50.10;;;;;;6107430;23;20097;-80
2022/04/17 11:11:13;;;;;;;2.58;0.80;;;16.30;49.50;;;;;;6084238;23;20021;-80
2022/04/17 11:14:10;;;;;;;1.45;0.77;;;16.50;49.30;;;;;;6107443;23;20013;-81
2022/04/17 11:16:48;;;;;;;2.45;1.15;;;16.90;49.20;;;;;;6082778;23;20057;-81
2022/04/17 11:19:19;;;;;;;2.78;0.93;;;17.40;48.20;;;;;;6084208;23;20010;-79
2022/04/17 11:21:51;;;;;;;3.05;0.82;;;18.00;47.00;;;;;;6107347;23;20026;-79
2022/04/17 11:24:19;;;;;;;2.00;1.00;;;18.60;46.50;;;;;;6103296;23;20355;-81
2022/04/17 11:26:53;;;;;;;3.03;1.30;;;19.50;46.30;;;;;;6078985;23;20288;-78
2022/04/17 11:29:41;;;;;;;1.63;0.70;;;20.20;44.90;;;;;;6055555;23;20029;-81
2022/04/17 11:32:19;;;;;;;1.90;0.83;;;21.20;44.10;;;;;;6136835;23;20021;-82
2022/04/17 11:34:52;;;;;;;1.50;0.60;;;22.10;43.10;;;;;;6137387;23;20064;-83
2022/04/17 11:37:18;;;;;;;1.85;1.02;;;23.10;42.20;;;;;;6137757;23;20032;-81
2022/04/17 11:39:45;;;;;;;3.78;1.30;;;23.70;41.50;;;;;;6136774;23;20199;-80
2022/04/17 11:42:11;;;;;;;1.90;0.90;;;24.40;40.90;;;;;;6112944;23;20024;-81
2022/04/17 11:44:46;;;;;;;2.70;0.90;;;24.80;41.10;;;;;;6112893;23;20021;-81
2022/04/17 11:47:15;;;;;;;1.23;0.60;;;25.10;39.30;;;;;;6135746;23;20058;-81
2022/04/17 11:49:42;;;;;;;2.15;0.60;;;25.20;40.70;;;;;;6136704;23;20029;-79
2022/04/17 11:52:16;;;;;;;3.67;0.80;;;25.80;38.70;;;;;;6136902;23;20290;-82
2022/04/17 11:54:43;;;;;;;1.98;0.70;;;26.90;39.50;;;;;;6120300;23;20013;-79
2022/04/17 11:57:10;;;;;;;2.75;0.80;;;27.90;38.10;;;;;;6142687;23;20005;-80
2022/04/17 11:59:55;;;;;;;1.75;0.70;;;27.30;37.20;;;;;;6142350;23;20008;-80
2022/04/17 12:02:23;;;;;;;2.33;0.75;;;28.10;37.60;;;;;;6142229;23;20009;-81
2022/04/17 12:04:56;;;;;;;1.60;0.70;;;29.00;37.70;;;;;;6167044;23;20016;-81
2022/04/17 12:07:26;;;;;;;2.75;0.77;;;29.40;37.70;;;;;;6141110;23;20014;-80
2022/04/17 12:10:13;;;;;;;1.90;0.80;;;30.30;37.10;;;;;;6141972;23;20076;-80
2022/04/17 12:12:42;;;;;;;1.83;0.80;;;28.70;35.80;;;;;;6141698;23;20056;-81
2022/04/17 12:15:15;;;;;;;1.08;0.50;;;27.70;36.70;;;;;;6141503;23;20039;-81
2022/04/17 12:21:29;;;;;;;1.85;0.70;;;29.00;36.40;;;;;;6193258;23;20016;-80
2022/04/17 12:23:55;;;;;;;1.77;0.80;;;30.20;37.20;;;;;;6142362;23;20005;-80
2022/04/17 12:26:21;;;;;;;3.00;0.82;;;29.60;35.60;;;;;;6142443;23;20012;-82
2022/04/17 12:28:47;;;;;;;3.22;0.63;;;28.80;36.40;;;;;;6142494;23;20032;-82
2022/04/17 12:31:14;;;;;;;1.33;0.60;;;28.50;36.90;;;;;;6170130;23;20032;-80
2022/04/17 12:33:40;;;;;;;2.17;1.00;;;28.60;38.40;;;;;;6167611;23;19989;-81
2022/04/17 12:36:08;;;;;;;2.03;0.77;;;29.60;36.70;;;;;;6143396;23;20330;-81
2022/04/17 12:38:40;;;;;;;1.88;0.80;;;29.80;36.40;;;;;;6142901;23;20001;-81
2022/04/17 12:41:18;;;;;;;2.85;0.70;;;30.80;36.40;;;;;;6143728;23;20005;-82
2022/04/17 12:43:47;;;;;;;1.55;0.65;;;31.60;36.60;;;;;;6143166;23;20012;-81
2022/04/17 12:46:24;;;;;;;1.85;0.88;;;31.70;35.80;;;;;;6142924;23;20012;-81
2022/04/17 12:49:04;;;;;;;1.38;0.50;;;31.90;35.40;;;;;;6143492;23;20103;-81
2022/04/17 12:51:30;;;;;;;1.92;0.60;;;33.10;36.50;;;;;;6169958;23;20345;-80
2022/04/17 12:53:56;;;;;;;2.03;0.68;;;33.00;34.60;;;;;;6146529;23;19997;-81
2022/04/17 12:56:25;;;;;;;1.35;0.60;;;33.40;35.00;;;;;;6194563;23;20007;-82
2022/04/17 12:58:52;;;;;;;2.50;0.80;;;34.80;35.60;;;;;;6168852;23;20009;-81
2022/04/17 13:05:34;;;;;;;1.95;0.65;;;33.20;33.90;;;;;;6197055;23;20025;-81
2022/04/17 13:08:08;;;;;;;2.95;0.60;;;33.60;34.20;;;;;;6170607;23;20013;-81
2022/04/17 13:10:35;;;;;;;1.80;0.63;;;33.50;33.70;;;;;;6145288;23;20009;-81
2022/04/17 13:13:01;;;;;;;1.67;0.70;;;33.20;34.70;;;;;;6169647;23;20068;-80
2022/04/17 13:15:32;;;;;;;3.15;1.80;;;34.00;34.20;;;;;;6168740;23;20013;-80
2022/04/17 13:17:58;;;;;;;1.85;0.90;;;34.90;34.30;;;;;;6144645;23;20055;-81
2022/04/17 13:20:27;;;;;;;1.70;0.60;;;35.10;34.10;;;;;;6145283;23;20009;-83
2022/04/17 13:22:53;;;;;;;1.38;0.63;;;34.90;32.30;;;;;;6169553;23;20012;-83
2022/04/17 13:25:20;;;;;;;1.95;0.57;;;34.40;32.50;;;;;;6170652;23;20005;-82
2022/04/17 13:27:55;;;;;;;1.58;0.52;;;34.80;32.20;;;;;;6145309;23;20028;-81
2022/04/17 13:30:21;;;;;;;1.40;0.50;;;33.80;32.30;;;;;;6168755;23;20229;-81
2022/04/17 13:32:48;;;;;;;1.02;0.50;;;33.50;32.40;;;;;;6169714;23;20004;-80
2022/04/17 13:35:14;;;;;;;2.78;0.80;;;33.10;32.60;;;;;;6169640;23;20250;-81
2022/04/17 13:40:24;;;;;;;1.92;0.50;;;34.10;33.00;;;;;;6195938;23;20001;-81
2022/04/17 13:42:50;;;;;;;1.88;0.60;;;34.60;33.10;;;;;;6169218;23;20028;-81
2022/04/17 13:45:16;;;;;;;1.67;0.60;;;34.90;32.30;;;;;;6168910;23;20148;-80
2022/04/17 13:47:42;;;;;;;1.52;0.57;;;35.20;32.00;;;;;;6169449;23;20000;-81
2022/04/17 13:50:09;;;;;;;1.60;0.57;;;36.40;32.30;;;;;;6110083;23;20021;-80
2022/04/17 13:52:35;;;;;;;;;;;35.20;31.30;;;;;;6086912;23;20017;-81
2022/04/17 13:55:03;;;;;;;1.48;0.60;;;35.50;31.70;;;;;;6133942;23;19948;-81
2022/04/17 13:57:29;;;;;;;1.15;0.60;;;35.20;32.00;;;;;;6134733;23;20029;-80
2022/04/17 13:59:55;;;;;;;2.08;0.50;;;35.80;32.00;;;;;;6109372;23;20334;-82
2022/04/17 14:02:22;;;;;;;2.55;0.50;;;35.30;31.40;;;;;;6109222;23;20017;-81
2022/04/17 14:04:47;;;;;;;1.20;0.63;;;34.70;32.40;;;;;;6109241;23;20017;-80
2022/04/17 14:07:13;;;;;;;1.02;0.50;;;35.20;32.60;;;;;;6133013;23;20010;-80
2022/04/17 14:10:18;;;;;;;2.65;0.75;;;36.30;32.10;;;;;;6132842;23;20207;-82
2022/04/17 14:12:44;;;;;;;1.45;0.68;;;35.20;31.30;;;;;;6044033;23;20074;-80
2022/04/17 14:15:10;;;;;;;1.42;0.60;;;34.80;31.80;;;;;;6045938;23;20023;-79
2022/04/17 14:17:36;;;;;;;3.80;0.63;;;35.90;31.00;;;;;;6078397;23;20299;-80
2022/04/17 14:20:02;;;;;;;1.38;0.50;;;35.90;31.40;;;;;;6112796;23;20010;-80
2022/04/17 14:22:28;;;;;;;1.35;0.50;;;37.00;30.80;;;;;;6144470;23;20089;-82
2022/04/17 14:24:54;;;;;;;1.08;0.45;;;34.60;30.60;;;;;;6144713;23;20382;-81
2022/04/17 14:27:21;;;;;;;1.83;0.60;;;34.30;31.80;;;;;;6169674;23;20036;-81
2022/04/17 14:29:49;;;;;;;1.80;0.70;;;34.60;32.10;;;;;;6169455;23;20306;-79
2022/04/17 14:32:15;;;;;;;3.15;0.88;;;34.40;31.60;;;;;;6195531;23;20009;-82
2022/04/17 14:34:40;;;;;;;1.67;0.80;;;34.60;31.80;;;;;;6195711;23;20001;-80
2022/04/17 14:37:06;;;;;;;1.38;0.60;;;35.30;31.00;;;;;;6195865;23;20016;-80
2022/04/17 14:39:32;;;;;;;2.10;0.63;;;34.90;31.10;;;;;;6195986;23;20026;-80
2022/04/17 14:41:59;;;;;;;2.58;0.60;;;35.80;31.50;;;;;;6195640;23;20009;-79
2022/04/17 14:44:25;;;;;;;1.60;0.65;;;36.20;31.90;;;;;;6169856;23;20055;-79
2022/04/17 14:46:50;;;;;;;2.30;0.80;;;36.70;32.90;;;;;;6195299;23;20230;-79
2022/04/17 14:49:16;;;;;;;2.42;1.35;;;36.80;33.10;;;;;;6199539;23;20024;-81
2022/04/17 14:51:42;;;;;;;3.17;2.20;;;37.70;31.30;;;;;;6173024;23;20008;-79
2022/04/17 14:54:10;;;;;;;5.85;3.40;;;36.50;29.50;;;;;;6170135;23;20274;-81
2022/04/17 14:56:40;;;;;;;3.88;2.50;;;36.60;30.40;;;;;;6196007;23;20024;-79
2022/04/17 14:59:08;;;;;;;3.40;2.50;;;37.30;31.80;;;;;;6194511;23;20009;-80
2022/04/17 15:01:36;;;;;;;2.13;1.00;;;37.30;32.50;;;;;;6194826;23;20032;-81
2022/04/17 15:04:02;;;;;;;;;;;38.20;32.30;;;;;;6168910;23;20303;-80
2022/04/17 15:06:32;;;;;;;1.85;0.73;;;38.40;31.60;;;;;;6167440;23;19907;-80
2022/04/17 15:08:58;;;;;;;1.70;0.73;;;36.70;31.00;;;;;;6193677;23;20001;-79
2022/04/17 15:11:26;;;;;;;2.05;0.55;;;37.80;31.90;;;;;;6167673;23;20005;-80
2022/04/17 15:13:57;;;;;;;2.17;0.70;;;37.60;31.60;;;;;;6193600;23;20114;-79
2022/04/17 15:16:23;;;;;;;2.13;0.70;;;35.90;31.70;;;;;;6193582;23;20024;-80
2022/04/17 15:18:49;;;;;;;1.73;0.80;;;36.30;32.50;;;;;;6193926;23;20229;-81
2022/04/17 15:21:16;;;;;;;3.03;0.70;;;36.90;32.70;;;;;;6193430;23;20011;-79
2022/04/17 15:23:45;;;;;;;1.60;0.68;;;37.30;31.40;;;;;;6193494;23;20200;-81
2022/04/17 15:26:11;;;;;;;3.45;0.80;;;36.90;32.00;;;;;;6194509;23;20206;-80
2022/04/17 15:28:37;;;;;;;2.17;1.08;;;36.80;32.80;;;;;;6167819;23;20039;-80
2022/04/17 15:31:03;;;;;;;2.63;1.17;;;37.50;32.30;;;;;;6193282;23;20017;-81
2022/04/17 15:33:28;;;;;;;2.78;0.70;;;37.70;30.90;;;;;;6194701;23;20007;-80
2022/04/17 15:35:54;;;;;;;4.47;1.73;;;35.10;31.50;;;;;;6194138;23;20001;-80
2022/04/17 15:38:22;;;;;;;3.97;1.10;;;35.50;32.70;;;;;;6169568;23;20001;-80
2022/04/17 15:40:48;;;;;;;2.10;0.80;;;36.20;31.90;;;;;;6168632;23;20105;-79
2022/04/17 15:48:46;;;;;;;2.33;0.75;;;35.60;31.10;;;;;;6195035;23;20055;-79
2022/04/17 15:51:18;;;;;;;2.20;0.50;;;35.40;32.80;;;;;;6168296;23;19989;-78
2022/04/17 15:53:47;;;;;;;1.13;0.52;;;35.50;32.00;;;;;;6192072;23;20291;-78
2022/04/17 15:56:13;;;;;;;1.02;0.50;;;35.00;31.70;;;;;;6194729;23;20175;-79
2022/04/17 15:58:43;;;;;;;1.65;0.40;;;34.50;31.10;;;;;;6194510;23;20009;-80
2022/04/17 16:01:10;;;;;;;2.88;0.70;;;35.80;32.50;;;;;;6193337;23;20310;-79
2022/04/17 16:03:37;;;;;;;2.38;0.70;;;36.00;32.40;;;;;;6194480;23;20198;-79
2022/04/17 16:06:03;;;;;;;2.20;0.70;;;35.70;32.00;;;;;;6194003;23;20052;-79
2022/04/17 16:08:29;;;;;;;1.67;0.57;;;34.50;31.30;;;;;;6193144;23;20000;-78
2022/04/17 16:10:54;;;;;;;2.28;0.47;;;35.10;31.60;;;;;;6194111;23;20009;-78
2022/04/17 16:13:20;;;;;;;1.40;0.47;;;34.60;30.90;;;;;;6194515;23;20036;-79
2022/04/17 16:15:49;;;;;;;1.58;0.50;;;34.80;31.70;;;;;;6193797;23;20020;-78
2022/04/17 16:18:16;;;;;;;1.20;0.50;;;35.50;31.20;;;;;;6194727;23;20020;-78
2022/04/17 16:20:42;;;;;;;1.95;0.70;;;35.50;31.50;;;;;;6168593;23;20019;-80
2022/04/17 16:23:09;;;;;;;3.15;0.60;;;35.80;30.60;;;;;;6168588;23;20008;-82
2022/04/17 16:25:35;;;;;;;1.67;0.52;;;35.60;31.00;;;;;;6168562;23;20016;-78
2022/04/17 16:28:00;;;;;;;0.70;0.30;;;35.60;30.90;;;;;;6193041;23;19999;-81
2022/04/17 16:30:30;;;;;;;2.03;0.85;;;35.60;31.10;;;;;;6168355;23;20040;-82
2022/04/17 16:32:57;;;;;;;2.25;0.60;;;34.80;31.30;;;;;;6196115;23;20056;-80
2022/04/17 16:35:23;;;;;;;2.15;0.60;;;34.90;32.20;;;;;;6197156;23;19993;-79
2022/04/17 16:38:37;;;;;;;2.25;0.70;;;34.90;31.40;;;;;;6198086;23;20061;-81
2022/04/17 16:41:00;;;;;;;2.25;0.70;;;33.80;32.10;;;;;;6195820;23;20063;-80
2022/04/17 16:43:26;;;;;;;2.15;0.50;;;33.80;32.30;;;;;;6197303;23;20274;-81
2022/04/17 16:45:51;;;;;;;1.27;0.55;;;32.70;32.10;;;;;;6199525;23;20024;-78
2022/04/17 16:48:17;;;;;;;1.98;0.57;;;31.60;32.00;;;;;;6171149;23;20009;-77
2022/04/17 16:50:43;;;;;;;2.28;0.90;;;30.70;33.20;;;;;;6151289;23;20044;-78
2022/04/17 16:53:09;;;;;;;1.58;0.65;;;30.10;34.00;;;;;;6170755;23;20013;-79
2022/04/17 16:55:34;;;;;;;4.03;1.10;;;29.70;35.10;;;;;;6196712;23;20311;-78
2022/04/17 17:00:45;;;;;;;3.13;0.90;;;26.90;35.70;;;;;;6197779;23;20032;-79
2022/04/17 17:03:11;;;;;;;3.13;0.80;;;25.30;36.50;;;;;;6145150;23;20005;-79
2022/04/17 17:05:37;;;;;;;2.53;0.70;;;23.70;37.60;;;;;;6169715;23;20005;-80
2022/04/17 17:08:05;;;;;;;1.85;0.60;;;22.80;40.40;;;;;;6169779;23;20008;-82
2022/04/17 17:10:31;;;;;;;2.63;0.70;;;22.40;39.30;;;;;;6195817;23;20016;-80
2022/04/17 17:12:57;;;;;;;1.98;0.75;;;21.70;40.50;;;;;;6195077;23;20009;-79
2022/04/17 17:15:23;;;;;;;2.63;0.88;;;21.30;41.30;;;;;;6196811;23;20055;-82
2022/04/17 17:17:49;;;;;;;2.55;0.95;;;20.70;41.90;;;;;;6169968;23;20013;-80
2022/04/17 17:20:18;;;;;;;2.50;0.75;;;20.10;41.70;;;;;;6144464;23;19993;-80
2022/04/17 17:22:45;;;;;;;1.83;0.70;;;19.70;43.50;;;;;;6196619;23;20220;-80
2022/04/17 17:25:11;;;;;;;2.33;1.00;;;19.40;43.70;;;;;;6169710;23;20028;-79
2022/04/17 17:27:36;;;;;;;3.13;0.90;;;18.90;43.70;;;;;;6169588;23;20004;-81
2022/04/17 17:30:03;;;;;;;2.10;0.90;;;18.50;44.80;;;;;;6168432;23;20052;-83
2022/04/17 17:32:31;;;;;;;2.17;0.70;;;18.30;45.40;;;;;;6169825;23;20005;-79
2022/04/17 17:35:00;;;;;;;1.77;0.80;;;18.20;45.80;;;;;;6195663;23;20008;-81
2022/04/17 17:37:26;;;;;;;2.15;1.00;;;18.10;46.40;;;;;;6169594;23;20011;-79
2022/04/17 17:39:53;;;;;;;2.80;0.93;;;18.10;45.90;;;;;;6195949;23;19993;-81
2022/04/17 17:42:21;;;;;;;4.80;0.88;;;17.90;45.90;;;;;;6170133;23;20096;-82
2022/04/17 17:44:47;;;;;;;1.98;0.90;;;17.90;46.70;;;;;;6196019;23;20051;-83
2022/04/17 17:47:13;;;;;;;3.53;1.08;;;17.80;46.50;;;;;;6195503;23;20016;-80
2022/04/17 17:49:39;;;;;;;2.00;0.82;;;17.50;45.70;;;;;;6145613;23;19997;-83
2022/04/17 17:52:05;;;;;;;3.75;1.00;;;17.10;46.70;;;;;;6168180;23;20040;-82
2022/04/17 17:54:31;;;;;;;3.63;1.00;;;16.90;46.30;;;;;;6169389;23;20005;-82
2022/04/17 17:56:57;;;;;;;2.10;0.80;;;16.70;46.70;;;;;;6195144;23;20337;-80
2022/04/17 17:59:23;;;;;;;3.10;1.05;;;16.50;47.20;;;;;;6169184;23;20016;-81
2022/04/17 18:01:50;;;;;;;4.30;1.20;;;16.40;47.40;;;;;;6142594;23;20033;-79
2022/04/17 18:04:16;;;;;;;3.50;1.30;;;16.30;48.10;;;;;;6194959;23;20001;-78
2022/04/17 18:06:43;;;;;;;3.53;1.20;;;16.20;47.40;;;;;;6144570;23;20012;-81
2022/04/17 18:14:44;;;;;;;1.75;0.80;;;15.50;48.60;;;;;;6170306;23;20011;-82
2022/04/17 18:17:11;;;;;;;2.35;0.90;;;15.30;48.90;;;;;;6168176;23;20016;-81
2022/04/17 18:19:38;;;;;;;2.85;0.90;;;15.10;49.40;;;;;;6169719;23;20075;-80
2022/04/17 18:24:51;;;;;;;3.00;1.00;;;14.90;50.50;;;;;;6134302;23;20312;-80
2022/04/17 18:27:17;;;;;;;3.28;0.98;;;14.80;50.60;;;;;;6085731;23;20005;-81
2022/04/17 18:29:43;;;;;;;3.50;1.00;;;14.70;51.80;;;;;;6109151;23;20078;-80
2022/04/17 18:32:09;;;;;;;3.78;1.00;;;14.60;50.90;;;;;;6083932;23;20327;-82
2022/04/17 18:34:35;;;;;;;3.15;1.10;;;14.50;51.20;;;;;;6133371;23;20012;-80
2022/04/17 18:37:01;;;;;;;4.63;1.17;;;14.40;51.70;;;;;;6108308;23;20021;-81
2022/04/17 18:39:27;;;;;;;2.80;1.25;;;14.20;51.80;;;;;;6108443;23;20140;-82
2022/04/17 18:41:53;;;;;;;3.95;1.00;;;14.00;52.60;;;;;;6133032;23;20019;-82
2022/04/17 18:44:19;;;;;;;3.22;1.20;;;13.90;52.80;;;;;;6131846;23;20010;-81
2022/04/17 18:46:45;;;;;;;3.08;1.45;;;13.80;53.10;;;;;;6131796;23;20013;-81
2022/04/17 18:49:11;;;;;;;3.78;1.35;;;13.60;53.20;;;;;;6107607;23;20021;-81
2022/04/17 18:51:38;;;;;;;5.15;1.88;;;13.50;53.80;;;;;;6132440;23;20001;-81
2022/04/17 18:54:04;;;;;;;4.65;1.75;;;13.30;53.70;;;;;;6162954;23;20012;-79
2022/04/17 18:56:30;;;;;;;6.22;2.17;;;13.20;54.30;;;;;;6167979;23;20001;-80
2022/04/17 18:58:56;;;;;;;3.95;1.80;;;13.10;54.80;;;;;;6167727;23;19997;-82
2022/04/17 19:01:23;;;;;;;5.63;1.60;;;13.00;55.20;;;;;;6193709;23;20119;-84
2022/04/17 19:03:50;;;;;;;5.38;1.48;;;13.00;55.10;;;;;;6167828;23;20001;-80
2022/04/17 19:06:16;;;;;;;4.95;2.05;;;12.90;55.40;;;;;;6166198;23;20569;-80
2022/04/17 19:08:42;;;;;;;3.83;1.63;;;12.90;55.40;;;;;;6193851;23;20005;-81
2022/04/17 19:14:07;;;;;;;3.53;1.50;;;12.90;55.20;;;;;;6193975;23;20008;-81
2022/04/17 19:16:34;;;;;;;3.17;1.65;;;12.80;55.20;;;;;;6192925;23;20060;-81
2022/04/17 19:19:00;;;;;;;5.05;1.55;;;12.80;55.40;;;;;;6167558;23;20195;-83
2022/04/17 19:21:27;;;;;;;4.45;1.50;;;12.80;56.10;;;;;;6167009;23;20017;-78
2022/04/17 19:23:53;;;;;;;3.10;1.35;;;12.70;55.70;;;;;;6167707;23;20004;-82
2022/04/17 19:26:21;;;;;;;3.47;1.42;;;12.70;55.30;;;;;;6142690;23;20039;-81
2022/04/17 19:29:00;;;;;;;3.92;1.77;;;12.70;55.50;;;;;;6196086;23;20008;-81
2022/04/17 19:36:58;;;;;;;3.55;1.30;;;12.60;54.90;;;;;;6184178;23;20135;-80
2022/04/17 19:39:26;;;;;;;3.47;1.80;;;12.50;55.20;;;;;;6179220;23;20063;-81
2022/04/17 19:41:59;;;;;;;4.67;1.33;;;12.40;55.80;;;;;;6167731;23;20255;-82
2022/04/17 19:44:25;;;;;;;2.50;1.10;;;12.30;56.20;;;;;;6145365;23;20011;-83
2022/04/17 19:46:51;;;;;;;3.30;1.33;;;12.30;55.90;;;;;;6174661;23;20013;-83
2022/04/17 19:49:17;;;;;;;3.88;1.35;;;12.30;56.70;;;;;;6147669;23;20272;-81
2022/04/17 19:51:43;;;;;;;5.45;1.40;;;12.20;56.70;;;;;;6195322;23;20005;-85
2022/04/17 19:54:09;;;;;;;3.50;1.33;;;12.20;56.50;;;;;;6168385;23;20104;-81
2022/04/17 19:56:35;;;;;;;4.15;1.15;;;12.20;56.50;;;;;;6143913;23;20017;-84
2022/04/17 19:59:05;;;;;;;3.45;1.40;;;12.10;56.50;;;;;;6167570;23;20020;-84
2022/04/17 20:04:31;;;;;;;2.72;1.50;;;11.90;57.20;;;;;;6194209;23;20024;-82
2022/04/17 20:06:57;;;;;;;4.57;1.95;;;11.70;57.50;;;;;;6167577;23;20005;-84
2022/04/17 20:09:23;;;;;;;6.60;1.90;;;11.60;58.10;;;;;;6142557;23;20043;-84
2022/04/17 20:11:50;;;;;;;3.72;1.85;;;11.40;58.40;;;;;;6142430;23;20044;-83
2022/04/17 20:14:17;;;;;;;3.95;1.80;;;11.40;58.70;;;;;;6166793;23;20231;-85
2022/04/17 20:17:02;;;;;;;4.63;1.98;;;11.20;58.90;;;;;;6141689;23;20311;-84
2022/04/17 20:19:29;;;;;;;5.20;1.77;;;11.10;59.40;;;;;;6167513;23;20012;-83
2022/04/17 20:21:57;;;;;;;4.93;1.90;;;11.00;59.80;;;;;;6167615;23;20013;-83
2022/04/17 20:24:30;;;;;;;5.57;1.98;;;10.90;59.90;;;;;;6167825;23;20238;-83
2022/04/17 20:27:00;;;;;;;3.50;2.03;;;10.90;60.10;;;;;;6167156;23;20084;-82
2022/04/17 20:29:26;;;;;;;3.47;1.70;;;10.80;60.50;;;;;;6142735;23;20019;-83
2022/04/17 20:31:52;;;;;;;3.72;2.05;;;10.70;60.20;;;;;;6166553;23;20362;-84
2022/04/17 20:34:18;;;;;;;3.78;1.98;;;10.60;60.70;;;;;;6167332;23;20040;-82
2022/04/17 20:36:44;;;;;;;3.47;1.90;;;10.60;60.80;;;;;;6142625;23;20029;-85
2022/04/17 20:39:09;;;;;;;4.13;2.10;;;10.60;61.00;;;;;;6193485;23;20004;-84
2022/04/17 20:41:35;;;;;;;3.50;1.85;;;10.50;60.90;;;;;;6192772;23;20013;-83
2022/04/17 20:52:13;;;;;;;4.05;2.17;;;10.20;61.40;;;;;;6166348;23;20229;-83
2022/04/17 20:54:41;;;;;;;4.55;2.15;;;10.10;61.80;;;;;;6166841;23;19993;-83
2022/04/17 20:57:07;;;;;;;3.08;1.60;;;10.10;62.40;;;;;;6140778;23;20016;-83
2022/04/17 20:59:35;;;;;;;4.50;2.25;;;10.00;62.00;;;;;;6167126;23;20356;-83